Aeroporto :
LOGIN :

Iscrizione | Disclaimer

   EN    FR    IT 

 










Sommario :    VFR   VFR Marginale   IFR   IFR Intensivo   IFR Molto Intensivo
Visibilità : 
Base nubi : 
>= 8 km
>= 3000ft
5 / 8 km
1000 / 3000 ft
1500m / 5 km
500 / 1000 ft
800 / 1500m
200 / 500 ft
< 800m
< 200 ft
Simboli :   Temporali  Nebbia  Neve Forte  Precipitazioni Forti  Vento > 20 kt
SIGMETs :   Varie  Temporali  Ghiacco  Turbolenza  Onda orograficha  Ceneri Vulcaniche







- Altitudine del aeroporto : 1906 ft
- Codice IATA : INN


LOWI - Innsbruck

ULTIMO METAR :
  • 200320Z AUTO 26002KT 9999 NSC 14/12 Q1018

METARs OBSOLETI :
  • 200250Z AUTO 27002KT 9999 NSC 15/12 Q1018
  • 200220Z AUTO 23002KT 9999 NSC 15/12 Q1018
  • 200150Z AUTO VRB02KT 9999 NSC 16/12 Q1018
  • 200120Z AUTO VRB01KT 9999 NSC 16/13 Q1018
  • 200050Z AUTO VRB02KT 9999 NSC 17/13 Q1018

TAF TAF LOWI
Valido dal 20 a 00 ore il 21 a 00 ore UTC


192315Z 2000/2024 27003KT CAVOK TX29/2014Z TN14/2004Z
BECMG 2009/2011 12015KT 9999 SCT080
TEMPO 2014/2020 VRB15G25KT SCT080 FEW080CB
BECMG 2020/2022 27007KT CAVOK
Nessun NOTAM noto per questo aeroporto.



MetMap, La meteo Aeronautica in un colpo d'occhio ! - Copyright ORBIFLY Dicembre 2007 - Disclaimer

ORBIFLY MET'MAP TEAM :

Programmazione e sviluppo : Alexandra Zaïnal
Concezione e sviluppo : Baudouin d'Aumeries
Co-Programmazione e sviluppo : Marc-Olivier Méhu
Supporto tecnico e logistico : Manuel Goepfert
Aiuto per la traduzione : Arnaldo La Scala

Contatto : metmap@orbifly.com




FONTI E CREDITI :

   NOAA